Time;durP1;ratioP1;P1;durP2;ratioP2;P2;SDS_P1;SDS_P2;PMS_P1;PMS_P2;Temp;Humidity;BMP_temperature;BMP_pressure;BME280_temperature;BME280_humidity;BME280_pressure;Samples;Min_cycle;Max_cycle;Signal;HPM_P1;HPM_P2
2021/12/23 00:00:11;;;;;;;41.40;26.37;;;;;;;-0.72;72.85;100706.00;5111455;28;20191;-57
2021/12/23 00:02:39;;;;;;;37.90;24.93;;;;;;;-0.76;73.13;100702.34;5111235;28;20281;-56
2021/12/23 00:05:08;;;;;;;43.10;25.23;;;;;;;-0.88;72.09;100673.59;5111032;28;20634;-57
2021/12/23 00:07:35;;;;;;;42.17;24.43;;;;;;;-0.74;72.35;100708.38;5110930;28;20281;-57
2021/12/23 00:10:09;;;;;;;41.03;25.33;;;;;;;-0.73;72.34;100705.09;5110907;28;20232;-56
2021/12/23 00:12:38;;;;;;;37.97;22.57;;;;;;;-0.71;72.56;100701.06;5110968;28;20200;-56
2021/12/23 00:15:09;;;;;;;41.33;24.07;;;;;;;-0.73;72.72;100697.53;5111167;28;20190;-56
2021/12/23 00:17:56;;;;;;;42.17;23.67;;;;;;;-0.71;72.11;100697.63;5110965;28;20251;-56
2021/12/23 00:23:26;;;;;;;37.92;25.85;;;;;;;-0.76;71.76;100666.13;5109736;28;20410;-57
2021/12/23 00:26:00;;;;;;;38.33;23.90;;;;;;;-0.50;71.31;100701.00;5110731;28;20858;-57
2021/12/23 00:28:27;;;;;;;41.00;23.13;;;;;;;-0.49;70.95;100698.56;5110884;28;20573;-57
2021/12/23 00:30:54;;;;;;;43.57;24.60;;;;;;;-0.47;70.98;100694.56;5110711;28;20285;-56
2021/12/23 00:33:23;;;;;;;39.93;24.13;;;;;;;-0.47;70.96;100694.56;5111138;28;20273;-56
2021/12/23 00:35:50;;;;;;;42.90;23.93;;;;;;;-0.54;71.19;100696.44;5111254;28;20228;-56
2021/12/23 00:38:22;;;;;;;37.00;24.23;;;;;;;-0.52;70.42;100697.47;5110760;28;20676;-56
2021/12/23 00:40:49;;;;;;;37.97;23.50;;;;;;;-0.58;69.95;100689.41;5110588;28;20194;-57
2021/12/23 00:43:17;;;;;;;37.33;22.33;;;;;;;-0.57;70.66;100691.16;5110595;28;20201;-57
2021/12/23 00:45:44;;;;;;;38.03;23.07;;;;;;;-0.62;70.65;100684.13;5110769;28;20224;-57
2021/12/23 00:48:11;;;;;;;38.70;22.53;;;;;;;-0.58;70.93;100697.00;5110548;28;20286;-57
2021/12/23 00:50:38;;;;;;;43.87;25.10;;;;;;;-0.60;70.86;100689.28;5110705;28;20277;-57
2021/12/23 00:53:08;;;;;;;41.57;25.83;;;;;;;-0.57;70.67;100686.09;5110711;28;20187;-57
2021/12/23 00:55:35;;;;;;;47.27;26.70;;;;;;;-0.64;70.75;100690.69;5110748;28;20243;-57
2021/12/23 00:58:03;;;;;;;42.60;25.00;;;;;;;-0.65;71.10;100690.56;5110582;28;21006;-57
2021/12/23 01:00:31;;;;;;;47.63;25.97;;;;;;;-0.70;70.80;100689.31;5114572;28;20226;-57
2021/12/23 01:03:00;;;;;;;43.43;25.73;;;;;;;-0.74;70.73;100692.34;5114836;28;20197;-57
2021/12/23 01:05:28;;;;;;;43.10;27.10;;;;;;;-0.78;70.93;100693.78;5114456;28;20194;-57
2021/12/23 01:07:55;;;;;;;45.03;27.57;;;;;;;-0.73;71.27;100689.97;5114419;28;20201;-57
2021/12/23 01:10:24;;;;;;;47.50;28.23;;;;;;;-0.68;70.57;100682.75;5102741;28;20202;-57
2021/12/23 01:12:56;;;;;;;45.43;28.10;;;;;;;-0.67;70.84;100687.94;5094040;28;20277;-57
2021/12/23 01:18:23;;;;;;;41.57;26.40;;;;;;;-0.70;70.12;100685.16;5031716;28;20280;-57
2021/12/23 01:21:03;;;;;;;49.90;31.95;;;;;;;-0.73;70.74;100679.88;5079839;28;20526;-57
2021/12/23 01:23:33;;;;;;;50.17;31.27;;;;;;;-0.74;70.85;100669.63;5094036;28;20191;-57
2021/12/23 01:26:00;;;;;;;52.83;30.33;;;;;;;-0.74;70.49;100673.06;5093912;28;20214;-57
2021/12/23 01:28:27;;;;;;;46.33;28.37;;;;;;;-0.77;70.41;100675.31;5093775;28;20286;-57
2021/12/23 01:30:54;;;;;;;53.10;30.33;;;;;;;-0.76;70.46;100676.22;5093362;28;20194;-57
2021/12/23 01:33:23;;;;;;;53.77;30.97;;;;;;;-0.76;71.14;100667.00;5093506;28;20191;-57
2021/12/23 01:35:51;;;;;;;49.27;30.17;;;;;;;-0.75;69.95;100675.47;5093835;28;20606;-57
2021/12/23 01:38:19;;;;;;;49.27;30.40;;;;;;;-0.73;70.25;100671.41;5093801;28;20281;-57
2021/12/23 01:40:46;;;;;;;44.80;28.00;;;;;;;-0.78;70.55;100673.59;5094512;28;20191;-57
2021/12/23 01:43:13;;;;;;;58.10;30.27;;;;;;;-0.83;70.81;100667.31;5112601;28;20198;-57
2021/12/23 01:45:45;;;;;;;52.13;30.90;;;;;;;-0.82;70.71;100670.69;5108662;28;20205;-57
2021/12/23 01:48:12;;;;;;;47.80;30.83;;;;;;;-0.95;72.01;100668.84;5093727;28;20201;-57
2021/12/23 01:50:41;;;;;;;53.70;30.63;;;;;;;-1.00;72.99;100662.53;5105301;28;20292;-57
2021/12/23 01:53:09;;;;;;;57.17;36.38;;;;;;;-0.90;73.01;100667.56;5112757;28;20430;-57
2021/12/23 01:55:37;;;;;;;53.63;31.10;;;;;;;-0.84;73.28;100662.13;5113602;28;20221;-59
2021/12/23 01:58:06;;;;;;;56.37;32.50;;;;;;;-1.05;73.58;100633.56;5113773;28;20203;-59
2021/12/23 02:00:35;;;;;;;50.77;31.90;;;;;;;-0.98;73.58;100661.03;5113654;28;20296;-59
2021/12/23 02:03:03;;;;;;;57.03;32.97;;;;;;;-0.97;74.34;100652.72;5113454;28;20191;-58
2021/12/23 02:05:30;;;;;;;56.90;34.47;;;;;;;-1.02;73.99;100653.97;5113406;28;20190;-59
2021/12/23 02:07:59;;;;;;;54.00;33.57;;;;;;;-1.13;74.96;100651.34;5113527;28;20570;-60
2021/12/23 02:10:28;;;;;;;53.77;34.40;;;;;;;-1.26;75.00;100634.34;5112588;28;20577;-60
2021/12/23 02:12:55;;;;;;;54.87;33.50;;;;;;;-1.27;74.93;100645.22;5113221;28;20191;-61
2021/12/23 02:15:22;;;;;;;52.70;35.23;;;;;;;-1.24;75.20;100642.94;5113175;28;20190;-60
2021/12/23 02:17:50;;;;;;;60.97;36.80;;;;;;;-1.21;75.34;100645.72;5113039;28;20282;-60
2021/12/23 02:20:20;;;;;;;56.67;32.57;;;;;;;-1.19;74.87;100646.72;5113040;28;20285;-60
2021/12/23 02:22:48;;;;;;;47.77;31.13;;;;;;;-1.20;72.86;100653.38;5113014;28;20193;-60
2021/12/23 02:25:16;;;;;;;56.63;34.43;;;;;;;-1.22;71.94;100654.03;5113206;28;20216;-61
2021/12/23 02:27:44;;;;;;;51.77;33.93;;;;;;;-1.18;73.21;100647.59;5113020;28;20236;-61
2021/12/23 02:30:14;;;;;;;52.63;32.70;;;;;;;-1.12;72.54;100656.50;5113316;28;20571;-60
2021/12/23 02:32:41;;;;;;;49.90;30.70;;;;;;;-1.15;72.12;100647.84;5112944;28;20226;-60
2021/12/23 02:35:13;;;;;;;46.27;28.83;;;;;;;-1.13;71.21;100653.88;5112991;28;20190;-60
2021/12/23 02:37:43;;;;;;;49.57;27.87;;;;;;;-1.13;70.47;100648.84;5112913;28;20186;-60
2021/12/23 02:40:12;;;;;;;45.83;28.83;;;;;;;-1.08;69.99;100658.53;5112887;28;20188;-60
2021/12/23 02:42:39;;;;;;;44.00;27.33;;;;;;;-1.31;69.46;100616.34;5112841;28;20194;-60
2021/12/23 02:45:09;;;;;;;42.33;26.00;;;;;;;-1.10;69.52;100655.03;5112918;28;20193;-60
2021/12/23 02:47:38;;;;;;;40.37;24.93;;;;;;;-1.09;69.25;100650.81;5112650;28;20249;-60
2021/12/23 02:50:06;;;;;;;40.83;25.03;;;;;;;-1.07;68.24;100655.22;5112765;28;20235;-60
2021/12/23 02:52:36;;;;;;;40.03;24.00;;;;;;;-1.44;68.30;100601.00;5112613;28;20195;-59
2021/12/23 02:55:07;;;;;;;34.87;23.63;;;;;;;-1.13;67.92;100642.16;5093524;28;20230;-59
2021/12/23 02:57:35;;;;;;;37.77;24.73;;;;;;;-1.18;67.50;100643.41;5092468;28;20191;-59
2021/12/23 03:00:09;;;;;;;36.97;24.03;;;;;;;-1.20;67.33;100645.81;5092333;28;20202;-59
2021/12/23 03:02:39;;;;;;;40.03;25.30;;;;;;;-1.14;67.86;100647.94;5091902;28;20186;-59
2021/12/23 03:05:06;;;;;;;44.87;24.87;;;;;;;-1.17;67.90;100651.84;5091890;28;20195;-59
2021/12/23 03:07:33;;;;;;;41.92;29.08;;;;;;;-1.06;68.56;100643.50;5090621;28;20456;-58
2021/12/23 03:10:00;;;;;;;39.53;25.87;;;;;;;-0.98;66.90;100658.50;5091762;28;20191;-58
2021/12/23 03:12:29;;;;;;;36.03;23.83;;;;;;;-1.00;67.07;100649.94;5091665;28;20195;-58
2021/12/23 03:14:55;;;;;;;35.10;21.93;;;;;;;-1.06;66.83;100649.44;5091509;28;20198;-58
2021/12/23 03:17:22;;;;;;;37.43;22.30;;;;;;;-1.11;67.49;100662.44;5091598;28;20212;-60
2021/12/23 03:19:49;;;;;;;39.50;27.27;;;;;;;-1.04;66.96;100659.66;5090720;28;20432;-60
2021/12/23 03:22:16;;;;;;;38.47;21.53;;;;;;;-0.92;66.17;100663.16;5090718;28;20198;-60
2021/12/23 03:24:43;;;;;;;33.67;21.13;;;;;;;-0.95;66.14;100663.78;5091620;28;20278;-61
2021/12/23 03:27:10;;;;;;;32.93;21.63;;;;;;;-0.96;65.79;100661.16;5091550;28;20303;-60
2021/12/23 03:29:38;;;;;;;33.30;20.70;;;;;;;-0.97;65.59;100667.84;5091566;28;20202;-61
2021/12/23 03:32:06;;;;;;;31.27;21.67;;;;;;;-0.97;66.24;100670.38;5091147;28;20724;-61
2021/12/23 03:34:33;;;;;;;30.43;20.10;;;;;;;-1.04;66.15;100670.63;5091523;28;20193;-60
2021/12/23 03:37:00;;;;;;;31.13;20.40;;;;;;;-1.02;65.80;100671.63;5091361;28;20193;-60
2021/12/23 03:39:27;;;;;;;30.50;20.30;;;;;;;-1.00;66.41;100670.13;5091233;28;20704;-60
2021/12/23 03:41:54;;;;;;;32.43;21.33;;;;;;;-0.97;65.88;100667.84;5091141;28;20281;-59
2021/12/23 03:44:21;;;;;;;32.90;20.73;;;;;;;-0.99;65.55;100668.47;5091082;28;20278;-59
2021/12/23 03:46:50;;;;;;;32.33;20.60;;;;;;;-1.02;65.80;100669.13;5090826;28;20229;-59
2021/12/23 03:49:17;;;;;;;31.37;20.27;;;;;;;-1.03;66.46;100671.50;5091272;28;20194;-59
2021/12/23 03:51:44;;;;;;;35.60;21.70;;;;;;;-1.10;66.13;100659.16;5090912;28;20191;-59
2021/12/23 03:54:11;;;;;;;32.60;22.53;;;;;;;-1.06;66.72;100677.19;5090864;28;20218;-59
2021/12/23 03:56:37;;;;;;;34.20;22.03;;;;;;;-1.07;66.07;100679.59;5090927;28;20186;-59
2021/12/23 03:59:04;;;;;;;37.10;21.20;;;;;;;-1.06;65.81;100677.19;5097035;28;20576;-59
2021/12/23 04:01:32;;;;;;;32.93;21.63;;;;;;;-1.01;66.07;100685.09;5111126;28;20285;-59
2021/12/23 04:04:00;;;;;;;35.80;23.75;;;;;;;-1.02;66.42;100689.28;5110760;28;20438;-60
2021/12/23 04:06:27;;;;;;;50.17;26.47;;;;;;;-1.05;66.54;100694.09;5111685;28;20186;-61
2021/12/23 04:08:56;;;;;;;42.23;28.93;;;;;;;-1.18;68.49;100701.38;5111550;28;20178;-59
2021/12/23 04:11:23;;;;;;;42.73;26.63;;;;;;;-1.36;70.11;100694.88;5111892;28;20264;-61
2021/12/23 04:13:52;;;;;;;43.57;26.13;;;;;;;-1.37;70.79;100700.66;5111124;28;20192;-60
2021/12/23 04:16:20;;;;;;;45.93;26.33;;;;;;;-1.43;71.28;100697.66;5111216;28;20198;-62
2021/12/23 04:18:49;;;;;;;43.83;26.87;;;;;;;-1.58;72.09;100696.38;5111267;28;20183;-61
2021/12/23 04:21:18;;;;;;;40.57;25.47;;;;;;;-1.65;72.18;100692.47;5104614;28;20282;-60
2021/12/23 04:23:45;;;;;;;38.90;23.87;;;;;;;-1.61;72.03;100698.63;5099490;28;20420;-59
2021/12/23 04:26:12;;;;;;;41.40;25.73;;;;;;;-1.64;72.67;100695.84;5079415;28;20297;-60
2021/12/23 04:28:46;;;;;;;44.03;25.53;;;;;;;-1.73;72.44;100701.00;5089729;28;20222;-60
2021/12/23 04:31:15;;;;;;;40.53;26.37;;;;;;;-1.92;74.00;100703.63;5090652;28;20194;-60
2021/12/23 04:33:42;;;;;;;43.37;27.53;;;;;;;-1.79;73.55;100710.59;5090338;28;20191;-60
2021/12/23 04:36:09;;;;;;;41.60;26.97;;;;;;;-1.78;73.11;100712.34;5084968;28;20202;-59
2021/12/23 04:38:39;;;;;;;42.83;26.37;;;;;;;-1.79;73.18;100705.56;5070189;28;20190;-60
2021/12/23 04:41:07;;;;;;;39.93;25.67;;;;;;;-1.77;73.22;100695.59;5071627;28;20398;-61
2021/12/23 04:43:33;;;;;;;38.57;26.20;;;;;;;-1.93;73.57;100696.84;5070045;28;20183;-59
2021/12/23 04:46:01;;;;;;;46.57;26.53;;;;;;;-1.85;74.37;100705.94;5070050;28;20191;-61
2021/12/23 04:48:29;;;;;;;44.10;27.13;;;;;;;-1.81;74.40;100695.34;5070133;28;20328;-60
2021/12/23 04:50:55;;;;;;;42.80;28.20;;;;;;;-1.84;73.96;100690.03;5084197;28;20206;-60
2021/12/23 04:53:22;;;;;;;46.57;30.13;;;;;;;-1.70;73.57;100696.22;5090124;28;20186;-60
2021/12/23 04:55:52;;;;;;;46.27;28.83;;;;;;;-1.66;73.32;100700.78;5092586;28;20291;-59
2021/12/23 04:58:19;;;;;;;46.17;29.97;;;;;;;-1.71;73.14;100691.97;5081599;28;20202;-60
2021/12/23 05:00:49;;;;;;;43.70;29.03;;;;;;;-1.65;73.28;100692.47;5070093;28;20200;-60
2021/12/23 05:03:16;;;;;;;42.30;27.10;;;;;;;-1.62;72.66;100690.19;5069775;28;20214;-59
2021/12/23 05:05:44;;;;;;;41.37;25.50;;;;;;;-1.57;71.27;100693.09;5070081;28;20187;-59
2021/12/23 05:08:12;;;;;;;39.30;25.07;;;;;;;-1.57;71.50;100688.97;5076162;28;20685;-60
2021/12/23 05:10:39;;;;;;;39.17;24.93;;;;;;;-1.54;71.26;100689.19;5089978;28;20197;-59
2021/12/23 05:13:07;;;;;;;41.37;27.03;;;;;;;-1.56;70.84;100684.78;5089820;28;20202;-60
2021/12/23 05:15:34;;;;;;;41.77;28.50;;;;;;;-1.64;71.00;100679.13;5090207;28;20274;-59
2021/12/23 05:18:02;;;;;;;44.03;29.60;;;;;;;-1.59;71.37;100682.88;5089982;28;20193;-59
2021/12/23 05:20:29;;;;;;;45.50;31.23;;;;;;;-1.58;72.03;100689.69;5089853;28;20629;-59
2021/12/23 05:22:56;;;;;;;47.03;29.70;;;;;;;-1.75;72.21;100661.34;5090318;28;20274;-59
2021/12/23 05:25:23;;;;;;;46.03;30.50;;;;;;;-1.62;72.61;100696.88;5090156;28;20193;-59
2021/12/23 05:27:52;;;;;;;44.27;29.03;;;;;;;-1.66;72.68;100693.22;5089916;28;20215;-60
2021/12/23 05:30:21;;;;;;;47.37;31.03;;;;;;;-1.63;73.02;100687.56;5089553;28;20199;-60
2021/12/23 05:32:49;;;;;;;43.13;29.17;;;;;;;-1.67;72.45;100693.97;5089954;28;20249;-60
2021/12/23 05:35:18;;;;;;;42.93;29.43;;;;;;;-1.58;72.69;100697.25;5089736;28;20194;-59
2021/12/23 05:37:46;;;;;;;42.83;28.17;;;;;;;-1.62;73.01;100681.78;5089580;28;20187;-60
2021/12/23 05:40:15;;;;;;;41.37;29.30;;;;;;;-1.57;72.75;100693.09;5089594;28;20198;-60
2021/12/23 05:42:43;;;;;;;57.10;33.30;;;;;;;-1.62;72.60;100692.72;5089656;28;20557;-61
2021/12/23 05:45:11;;;;;;;49.63;32.23;;;;;;;-1.62;72.97;100696.88;5073116;28;20658;-60
2021/12/23 05:47:41;;;;;;;58.53;34.73;;;;;;;-1.65;72.61;100697.53;5072660;28;20786;-59
2021/12/23 05:50:09;;;;;;;71.97;44.03;;;;;;;-1.64;72.75;100705.94;5073627;28;20200;-60
2021/12/23 05:52:36;;;;;;;50.10;31.93;;;;;;;-1.88;72.38;100705.66;5072921;28;20570;-59
2021/12/23 05:55:04;;;;;;;49.00;29.27;;;;;;;-1.92;72.73;100708.66;5073088;28;20202;-60
2021/12/23 05:57:31;;;;;;;40.53;27.13;;;;;;;-2.10;72.72;100678.56;5072905;28;20283;-60
2021/12/23 05:59:58;;;;;;;48.63;30.57;;;;;;;-1.96;73.10;100714.22;5072965;28;20282;-60
2021/12/23 06:02:25;;;;;;;43.63;30.87;;;;;;;-1.96;74.05;100716.75;5073126;28;20621;-59
2021/12/23 06:04:54;;;;;;;49.77;31.53;;;;;;;-1.99;74.06;100718.09;5072651;28;20194;-63
2021/12/23 06:07:21;;;;;;;53.23;33.67;;;;;;;-1.95;73.81;100710.06;5072563;28;20694;-60
2021/12/23 06:09:48;;;;;;;56.30;36.22;;;;;;;-1.83;73.98;100721.16;5072247;28;20600;-61
2021/12/23 06:12:15;;;;;;;63.27;39.57;;;;;;;-2.06;73.46;100678.94;5072182;28;20210;-61
2021/12/23 06:14:42;;;;;;;76.77;45.20;;;;;;;-1.87;73.30;100724.19;5072239;28;20656;-61
2021/12/23 06:17:09;;;;;;;77.87;45.63;;;;;;;-1.90;73.83;100727.34;5072458;28;20278;-61
2021/12/23 06:19:36;;;;;;;78.70;47.00;;;;;;;-2.01;74.35;100722.13;5071867;28;20625;-61
2021/12/23 06:22:05;;;;;;;71.37;42.27;;;;;;;-1.94;74.24;100732.84;5071723;28;20278;-59
2021/12/23 06:24:32;;;;;;;80.93;42.13;;;;;;;-1.97;74.17;100730.06;5071636;28;20215;-60
2021/12/23 06:26:59;;;;;;;66.43;37.30;;;;;;;-1.98;73.51;100733.31;5071973;28;20236;-60
2021/12/23 06:29:26;;;;;;;53.50;35.60;;;;;;;-1.91;73.88;100740.66;5071864;28;20733;-60
2021/12/23 06:31:53;;;;;;;54.67;33.87;;;;;;;-1.85;73.07;100747.88;5071791;28;20224;-61
2021/12/23 06:34:20;;;;;;;43.70;27.90;;;;;;;-1.86;73.01;100741.03;5071849;28;20186;-60
2021/12/23 06:36:47;;;;;;;39.57;25.90;;;;;;;-1.88;72.54;100743.44;5071800;28;20649;-60
2021/12/23 06:39:15;;;;;;;43.50;28.30;;;;;;;-2.10;72.05;100711.28;5071823;28;20192;-61
2021/12/23 06:41:42;;;;;;;45.22;29.58;;;;;;;-1.89;72.49;100749.22;5071478;28;20441;-61
2021/12/23 06:44:09;;;;;;;48.90;32.60;;;;;;;-1.79;71.67;100751.75;5071463;28;20195;-61
2021/12/23 06:46:36;;;;;;;41.47;27.87;;;;;;;-1.82;72.01;100749.00;5071441;28;20658;-60
2021/12/23 06:49:03;;;;;;;41.77;27.93;;;;;;;-1.92;71.59;100736.38;5071017;28;20211;-60
2021/12/23 06:51:31;;;;;;;59.97;40.50;;;;;;;-1.71;71.55;100754.06;5070368;28;20558;-61
2021/12/23 06:54:00;;;;;;;49.57;33.57;;;;;;;-0.90;71.17;100749.91;5071577;28;20286;-62
2021/12/23 06:56:28;;;;;;;45.77;31.13;;;;;;;-0.36;66.57;100748.41;5071020;28;20192;-60
2021/12/23 06:58:55;;;;;;;51.80;34.07;;;;;;;-0.41;66.04;100744.63;5071590;28;20286;-61
2021/12/23 07:01:22;;;;;;;46.73;28.50;;;;;;;-0.37;65.83;100744.09;5076523;28;20195;-60
2021/12/23 07:04:05;;;;;;;53.00;33.27;;;;;;;-0.82;66.41;100744.72;5092623;28;20203;-60
2021/12/23 07:06:35;;;;;;;52.23;30.83;;;;;;;-0.93;66.71;100744.59;5098306;28;20203;-61
2021/12/23 07:09:04;;;;;;;46.30;29.07;;;;;;;-0.98;67.50;100748.41;5112071;28;20214;-61
2021/12/23 07:11:33;;;;;;;50.47;30.57;;;;;;;-1.06;67.92;100707.44;5111904;28;20205;-62
2021/12/23 07:14:02;;;;;;;55.03;37.05;;;;;;;-0.72;66.97;100732.09;5110849;28;20434;-61
2021/12/23 07:16:29;;;;;;;53.97;33.27;;;;;;;-0.62;67.14;100739.63;5111714;28;20186;-61
2021/12/23 07:18:56;;;;;;;48.33;31.33;;;;;;;-0.58;67.20;100744.94;5111540;28;20292;-62
2021/12/23 07:21:23;;;;;;;64.53;32.78;;;;;;;-0.54;67.27;100741.88;5111460;28;20439;-62
2021/12/23 07:23:50;;;;;;;53.77;33.17;;;;;;;-0.46;66.33;100745.88;5092417;28;20657;-61
2021/12/23 07:26:17;;;;;;;44.57;29.50;;;;;;;-0.51;66.80;100749.69;5091144;28;20278;-60
2021/12/23 07:28:46;;;;;;;41.47;27.90;;;;;;;-0.45;65.79;100747.66;5084578;28;20689;-61
2021/12/23 07:31:13;;;;;;;38.60;26.43;;;;;;;-0.39;65.23;100749.03;5090797;28;20189;-62
2021/12/23 07:33:40;;;;;;;46.33;26.37;;;;;;;-0.33;65.20;100752.03;5098700;28;20282;-61
2021/12/23 07:36:07;;;;;;;54.03;27.13;;;;;;;-0.26;64.43;100760.97;5111345;28;20702;-62
2021/12/23 07:38:35;;;;;;;36.03;25.70;;;;;;;-0.18;64.98;100749.84;5111239;28;20186;-62
2021/12/23 07:41:02;;;;;;;49.07;28.23;;;;;;;-0.13;63.63;100749.44;5111162;28;20281;-61
2021/12/23 07:43:44;;;;;;;77.67;48.00;;;;;;;-0.08;65.27;100749.78;5111135;28;20191;-61
2021/12/23 07:46:12;;;;;;;85.87;48.87;;;;;;;0.00;65.59;100756.34;5110963;28;20652;-59
2021/12/23 07:48:39;;;;;;;78.73;48.87;;;;;;;0.01;66.47;100755.56;5111212;28;20285;-61
2021/12/23 07:51:06;;;;;;;48.73;31.67;;;;;;;0.05;63.88;100750.00;5110691;28;20198;-60
2021/12/23 07:53:33;;;;;;;47.95;32.38;;;;;;;0.11;62.71;100758.00;5109881;28;20806;-60
2021/12/23 07:56:00;;;;;;;36.73;23.80;;;;;;;0.10;61.03;100756.28;5110593;28;20653;-61
2021/12/23 07:58:27;;;;;;;33.80;22.50;;;;;;;0.03;59.75;100751.50;5110871;28;20201;-61
2021/12/23 08:00:54;;;;;;;36.60;22.77;;;;;;;0.09;60.77;100740.97;5110487;28;20285;-60
2021/12/23 08:03:22;;;;;;;28.60;19.37;;;;;;;0.27;59.62;100753.41;5110991;28;20273;-61
2021/12/23 08:05:52;;;;;;;29.03;19.80;;;;;;;0.32;58.79;100744.53;5109518;28;20197;-61
2021/12/23 08:08:19;;;;;;;35.90;19.63;;;;;;;0.45;57.69;100738.72;5108628;28;20225;-61
2021/12/23 08:10:46;;;;;;;27.43;19.23;;;;;;;0.48;58.13;100737.31;5109370;28;20197;-61
2021/12/23 08:13:13;;;;;;;33.90;19.13;;;;;;;0.47;58.18;100739.72;5108843;28;20190;-61
2021/12/23 08:15:40;;;;;;;29.23;17.83;;;;;;;0.47;57.11;100737.19;5109623;28;20200;-62
2021/12/23 08:18:07;;;;;;;31.63;23.35;;;;;;;0.44;57.81;100731.94;5109124;28;20548;-60
2021/12/23 08:20:35;;;;;;;26.50;18.63;;;;;;;0.52;57.41;100729.19;5110365;28;20728;-60
2021/12/23 08:23:02;;;;;;;21.27;15.50;;;;;;;0.65;56.39;100735.19;5110825;28;20277;-61
2021/12/23 08:25:29;;;;;;;31.20;21.05;;;;;;;0.74;55.85;100735.88;5110715;28;20441;-61
2021/12/23 08:27:56;;;;;;;27.27;17.53;;;;;;;0.81;55.13;100731.38;5110605;28;20277;-60
2021/12/23 08:30:23;;;;;;;24.07;16.90;;;;;;;0.95;54.96;100734.94;5110367;28;20281;-61
2021/12/23 08:32:51;;;;;;;23.07;16.50;;;;;;;0.99;54.40;100736.94;5110038;28;20311;-61
2021/12/23 08:35:19;;;;;;;26.73;17.67;;;;;;;1.00;54.35;100738.66;5110381;28;20364;-61
2021/12/23 08:37:49;;;;;;;25.30;15.30;;;;;;;1.04;53.86;100733.94;5110505;28;21005;-61
2021/12/23 08:40:19;;;;;;;19.03;13.53;;;;;;;1.00;53.33;100737.03;5110032;28;20186;-61
2021/12/23 08:42:46;;;;;;;22.30;15.20;;;;;;;1.08;53.89;100728.34;5110301;28;20297;-61
2021/12/23 08:45:13;;;;;;;21.13;14.30;;;;;;;1.16;53.74;100733.94;5110444;28;20604;-61
2021/12/23 08:47:40;;;;;;;32.55;16.20;;;;;;;1.22;53.87;100726.81;5110103;28;20887;-60
2021/12/23 08:50:08;;;;;;;28.83;15.80;;;;;;;1.28;53.52;100727.25;5109730;28;20693;-60
2021/12/23 08:52:36;;;;;;;22.67;15.13;;;;;;;1.28;53.06;100722.19;5109970;28;20196;-61
2021/12/23 08:55:07;;;;;;;23.83;15.97;;;;;;;1.31;53.77;100724.97;5110204;28;20194;-61
2021/12/23 08:57:34;;;;;;;28.03;16.87;;;;;;;1.35;53.71;100720.97;5110276;28;20194;-61
2021/12/23 09:00:01;;;;;;;29.57;17.50;;;;;;;1.25;54.51;100721.97;5109881;28;20192;-61
2021/12/23 09:02:28;;;;;;;30.03;17.40;;;;;;;1.30;55.17;100710.53;5110134;28;20228;-60
2021/12/23 09:04:55;;;;;;;32.37;18.73;;;;;;;1.39;55.63;100700.19;5109859;28;20194;-61
2021/12/23 09:07:22;;;;;;;26.57;18.10;;;;;;;1.51;55.83;100708.66;5109831;28;20201;-61
2021/12/23 09:09:51;;;;;;;30.67;15.23;;;;;;;1.57;54.98;100707.41;5109828;28;20211;-60
2021/12/23 09:12:20;;;;;;;21.50;15.40;;;;;;;1.64;54.85;100696.97;5110062;28;20194;-61
2021/12/23 09:14:48;;;;;;;19.97;13.43;;;;;;;1.62;54.86;100695.09;5110202;28;20186;-61
2021/12/23 09:17:15;;;;;;;20.60;14.20;;;;;;;1.70;55.31;100684.72;5109912;28;20194;-61
2021/12/23 09:19:43;;;;;;;24.53;14.80;;;;;;;1.73;55.43;100684.06;5110476;28;20503;-61
2021/12/23 09:22:10;;;;;;;19.17;14.37;;;;;;;1.85;55.11;100681.47;5113991;28;20190;-59
2021/12/23 09:24:40;;;;;;;21.23;13.90;;;;;;;1.85;55.86;100668.81;5113797;28;20193;-61
2021/12/23 09:27:18;;;;;;;19.17;14.57;;;;;;;1.91;56.21;100669.25;5114049;28;20193;-61
2021/12/23 09:32:52;;;;;;;24.83;15.10;;;;;;;1.99;55.76;100657.97;5110466;28;20343;-61
2021/12/23 09:35:21;;;;;;;26.17;16.37;;;;;;;2.08;56.04;100653.53;5099734;28;20444;-61
2021/12/23 09:37:48;;;;;;;23.73;13.67;;;;;;;2.20;55.00;100649.28;5073154;28;20223;-61
2021/12/23 09:40:16;;;;;;;20.47;14.57;;;;;;;2.08;55.34;100643.41;5073032;28;20188;-61
2021/12/23 09:42:45;;;;;;;23.80;15.37;;;;;;;2.19;55.26;100643.34;5072723;28;20282;-61
2021/12/23 09:45:17;;;;;;;25.63;14.20;;;;;;;2.09;55.12;100638.44;5072470;28;20234;-62
2021/12/23 09:47:46;;;;;;;24.83;14.53;;;;;;;2.23;54.78;100639.34;5072502;28;20194;-59
2021/12/23 09:50:17;;;;;;;23.80;14.93;;;;;;;2.30;54.21;100636.47;5080678;28;20249;-61
2021/12/23 09:52:46;;;;;;;23.77;14.67;;;;;;;2.41;54.06;100635.53;5112922;28;20679;-61
2021/12/23 09:55:16;;;;;;;24.40;15.03;;;;;;;2.54;54.16;100629.59;5113176;28;20191;-61
2021/12/23 09:57:45;;;;;;;21.03;13.97;;;;;;;2.33;53.75;100629.06;5113077;28;20297;-61
2021/12/23 10:00:16;;;;;;;27.03;15.07;;;;;;;2.43;54.30;100618.75;5113381;28;20561;-61
2021/12/23 10:02:43;;;;;;;22.50;13.60;;;;;;;2.46;54.06;100616.41;5112255;28;20251;-61
2021/12/23 10:05:14;;;;;;;26.23;15.30;;;;;;;2.55;54.32;100617.03;5112762;28;20596;-61
2021/12/23 10:07:44;;;;;;;21.87;14.83;;;;;;;2.58;53.91;100599.47;5112611;28;20205;-61
2021/12/23 10:10:15;;;;;;;21.83;13.43;;;;;;;2.55;53.48;100603.47;5112851;28;20221;-61
2021/12/23 10:27:47;;;;;;;25.08;16.90;;;;;;;3.01;53.29;100576.81;5091223;28;20439;-61
2021/12/23 10:38:30;;;;;;;27.13;15.97;;;;;;;3.10;52.07;100552.03;5112372;28;20200;-61
2021/12/23 10:40:59;;;;;;;26.43;16.67;;;;;;;3.21;52.31;100551.03;5112054;28;20236;-61
2021/12/23 10:43:29;;;;;;;26.70;15.73;;;;;;;3.25;52.47;100543.69;5112109;28;20309;-60
2021/12/23 10:45:58;;;;;;;20.27;14.60;;;;;;;3.10;51.54;100549.50;5111821;28;20190;-61
2021/12/23 10:48:29;;;;;;;20.93;13.60;;;;;;;2.99;51.46;100536.97;5111865;28;20229;-61
2021/12/23 10:51:04;;;;;;;22.67;16.70;;;;;;;2.88;51.79;100545.59;5106864;28;20554;-62
2021/12/23 10:53:45;;;;;;;24.40;18.13;;;;;;;2.99;52.11;100544.59;5102580;28;20284;-63
2021/12/23 10:59:10;;;;;;;21.70;15.83;;;;;;;3.02;51.50;100535.44;5111923;28;20189;-60
2021/12/23 11:01:58;;;;;;;23.20;16.43;;;;;;;3.05;51.77;100531.41;5111602;28;20174;-60
2021/12/23 11:04:28;;;;;;;27.80;18.25;;;;;;;3.16;51.21;100535.50;5110371;28;20450;-61
2021/12/23 11:07:13;;;;;;;24.70;16.23;;;;;;;3.26;50.91;100534.41;5111238;28;20190;-61
2021/12/23 11:10:00;;;;;;;26.70;16.03;;;;;;;3.11;50.73;100528.38;5111574;28;20286;-61
2021/12/23 11:30:06;;;;;;;23.67;15.40;;;;;;;3.14;49.89;100498.97;5069528;28;20222;-61
2021/12/23 11:35:49;;;;;;;25.10;16.63;;;;;;;3.32;49.09;100481.47;5111224;28;20695;-61
2021/12/23 11:38:31;;;;;;;27.73;17.77;;;;;;;3.41;49.60;100479.44;5111172;28;20192;-61
2021/12/23 11:41:03;;;;;;;41.93;20.90;;;;;;;3.43;50.10;100475.38;5111417;28;20194;-61
2021/12/23 11:46:12;;;;;;;35.03;22.20;;;;;;;3.66;49.69;100476.72;5110907;28;20194;-61
2021/12/23 11:48:42;;;;;;;38.90;23.80;;;;;;;3.59;49.63;100472.94;5110401;28;20186;-61
2021/12/23 11:51:15;;;;;;;34.10;22.73;;;;;;;3.56;49.57;100470.22;5111268;28;20174;-62
2021/12/23 11:53:48;;;;;;;35.80;21.20;;;;;;;3.63;49.49;100473.97;5085663;28;20195;-62
2021/12/23 11:56:17;;;;;;;35.43;22.07;;;;;;;3.48;49.35;100474.84;5087323;28;20187;-62
2021/12/23 11:58:47;;;;;;;32.10;20.33;;;;;;;3.20;49.45;100471.44;5090402;28;20202;-57
2021/12/23 12:01:18;;;;;;;35.03;24.05;;;;;;;3.23;49.88;100465.66;5086474;28;20445;-57
2021/12/23 12:04:01;;;;;;;31.23;21.57;;;;;;;3.33;49.38;100470.50;5073042;28;20290;-57
2021/12/23 12:06:31;;;;;;;36.43;21.20;;;;;;;3.45;49.46;100463.63;5070017;28;20195;-57
2021/12/23 12:09:11;;;;;;;27.40;19.80;;;;;;;3.38;49.15;100470.00;5068981;28;20219;-57
2021/12/23 12:11:39;;;;;;;32.57;21.50;;;;;;;3.48;48.72;100468.91;5069323;28;20191;-57
2021/12/23 12:14:26;;;;;;;30.53;20.10;;;;;;;3.44;48.83;100470.38;5069966;28;20198;-57
2021/12/23 12:16:54;;;;;;;31.90;19.57;;;;;;;3.61;48.91;100462.84;5069660;28;20191;-57